Time;durP1;ratioP1;P1;durP2;ratioP2;P2;SDS_P1;SDS_P2;PMS_P1;PMS_P2;Temp;Humidity;BMP_temperature;BMP_pressure;BME280_temperature;BME280_humidity;BME280_pressure;Samples;Min_cycle;Max_cycle;Signal;HPM_P1;HPM_P2
2021/12/09 00:01:02;;;;;;;48.00;32.47;;;;;;;-3.89;100.00;98245.41;2078537;28;20215;-74
2021/12/09 00:02:06;;;;;;;52.38;34.78;;;;;;;-3.85;100.00;98243.16;2078444;28;20686;-73
2021/12/09 00:03:07;;;;;;;55.78;35.80;;;;;;;-3.87;100.00;98242.59;2070606;28;20224;-74
2021/12/09 00:04:13;;;;;;;55.75;34.08;;;;;;;-3.93;100.00;98244.25;2070095;28;20292;-74
2021/12/09 00:05:17;;;;;;;55.10;34.45;;;;;;;-3.95;100.00;98242.91;2070896;28;20224;-74
2021/12/09 00:06:23;;;;;;;53.05;34.53;;;;;;;-3.90;100.00;98236.00;2078675;28;20219;-74
2021/12/09 00:07:25;;;;;;;54.38;34.95;;;;;;;-3.88;100.00;98243.59;2077755;28;20685;-74
2021/12/09 00:08:28;;;;;;;53.90;34.70;;;;;;;-3.88;100.00;98241.00;2078487;28;20227;-74
2021/12/09 00:09:30;;;;;;;54.35;33.78;;;;;;;-3.89;100.00;98240.22;2078219;28;20262;-74
2021/12/09 00:10:31;;;;;;;51.78;33.42;;;;;;;-3.88;100.00;98239.19;2078541;28;20216;-74
2021/12/09 00:11:41;;;;;;;53.22;34.92;;;;;;;-3.87;100.00;98245.19;2078561;28;20219;-73
2021/12/09 00:12:42;;;;;;;56.50;35.92;;;;;;;-3.92;100.00;98238.03;2078363;28;20297;-74
2021/12/09 00:13:45;;;;;;;50.17;32.90;;;;;;;-3.81;100.00;98247.69;2078552;28;20220;-74
2021/12/09 00:14:46;;;;;;;53.17;33.95;;;;;;;-3.71;100.00;98228.91;2070894;28;20462;-73
2021/12/09 00:15:48;;;;;;;52.73;35.40;;;;;;;-3.63;100.00;98236.41;2078498;28;20247;-73
2021/12/09 00:16:50;;;;;;;55.85;32.90;;;;;;;-3.76;100.00;98220.97;2079124;28;20682;-73
2021/12/09 00:17:51;;;;;;;51.47;35.33;;;;;;;-3.85;100.00;98219.69;2079269;28;20298;-74
2021/12/09 00:18:53;;;;;;;54.63;35.27;;;;;;;-3.83;100.00;98234.09;2077936;28;20227;-74
2021/12/09 00:19:55;;;;;;;53.00;34.90;;;;;;;-3.87;100.00;98230.34;2078159;28;20721;-74
2021/12/09 00:20:59;;;;;;;57.50;35.25;;;;;;;-3.92;100.00;98237.22;2079138;28;20235;-75
2021/12/09 00:22:02;;;;;;;54.20;33.88;;;;;;;-3.96;100.00;98234.28;2078439;28;20227;-73
2021/12/09 00:23:05;;;;;;;53.13;35.45;;;;;;;-3.95;100.00;98242.91;2070584;28;20224;-73
2021/12/09 00:24:05;;;;;;;55.60;36.22;;;;;;;-3.90;100.00;98238.63;2078259;28;20757;-73
2021/12/09 00:25:08;;;;;;;54.43;35.23;;;;;;;-3.90;100.00;98245.66;2079098;28;20631;-74
2021/12/09 00:26:10;;;;;;;54.75;35.97;;;;;;;-3.89;100.00;98242.00;2078778;28;20223;-74
2021/12/09 00:27:12;;;;;;;49.97;34.97;;;;;;;-3.87;100.00;98238.16;2078189;28;20653;-74
2021/12/09 00:28:13;;;;;;;52.13;35.67;;;;;;;-3.87;100.00;98250.41;2070555;28;20318;-74
2021/12/09 00:29:16;;;;;;;50.90;35.00;;;;;;;-3.86;100.00;98244.16;2078366;28;20231;-74
2021/12/09 00:30:17;;;;;;;54.28;34.67;;;;;;;-3.87;100.00;98245.19;2078280;28;20698;-74
2021/12/09 00:31:19;;;;;;;55.93;35.53;;;;;;;-3.83;100.00;98238.50;2070105;28;20613;-74
2021/12/09 00:32:20;;;;;;;53.08;35.47;;;;;;;-3.74;100.00;98235.34;2070269;28;20224;-73
2021/12/09 00:33:23;;;;;;;48.72;33.65;;;;;;;-3.78;100.00;98238.63;2070175;28;20674;-74
2021/12/09 00:34:30;;;;;;;52.88;35.70;;;;;;;-3.80;100.00;98232.84;2069824;28;20726;-73
2021/12/09 00:35:42;;;;;;;52.83;35.47;;;;;;;-3.83;100.00;98231.47;2071080;28;20691;-73
2021/12/09 00:36:57;;;;;;;52.50;35.10;;;;;;;-3.84;100.00;98229.88;2071153;28;20772;-74
2021/12/09 00:38:06;;;;;;;50.00;33.50;;;;;;;-3.85;100.00;98232.72;2071429;28;20219;-74
2021/12/09 00:39:08;;;;;;;55.88;34.83;;;;;;;-3.86;100.00;98231.94;2078342;28;20230;-74
2021/12/09 00:40:14;;;;;;;49.30;34.33;;;;;;;-3.83;100.00;98231.47;2077744;28;20254;-74
2021/12/09 00:41:19;;;;;;;52.95;35.92;;;;;;;-3.75;100.00;98223.34;2078335;28;20291;-73
2021/12/09 00:42:22;;;;;;;52.65;35.35;;;;;;;-3.73;100.00;98225.75;2078241;28;20223;-73
2021/12/09 00:43:24;;;;;;;54.85;34.90;;;;;;;-3.79;100.00;98226.63;2078043;28;20230;-74
2021/12/09 00:44:26;;;;;;;50.78;34.42;;;;;;;-3.82;100.00;98221.84;2077940;28;20322;-74
2021/12/09 00:45:27;;;;;;;50.97;34.67;;;;;;;-3.60;100.00;98227.34;2078328;28;26826;-74
2021/12/09 00:46:28;;;;;;;55.95;35.38;;;;;;;-3.59;100.00;98232.31;2078217;28;20226;-74
2021/12/09 00:47:30;;;;;;;48.70;35.08;;;;;;;-3.72;100.00;98220.31;2070201;28;20588;-73
2021/12/09 00:48:33;;;;;;;55.28;35.13;;;;;;;-3.74;100.00;98227.53;2070248;28;20224;-74
2021/12/09 00:49:34;;;;;;;51.78;34.10;;;;;;;-3.75;100.00;98218.13;2078369;28;20311;-73
2021/12/09 00:50:36;;;;;;;51.67;34.97;;;;;;;-3.67;100.00;98218.81;2079143;28;20678;-73
2021/12/09 00:51:38;;;;;;;54.60;33.92;;;;;;;-3.71;100.00;98214.06;2078484;28;20238;-74
2021/12/09 00:52:41;;;;;;;50.72;33.42;;;;;;;-3.73;100.00;98220.53;2078163;28;20235;-74
2021/12/09 00:53:42;;;;;;;52.85;34.20;;;;;;;-3.60;100.00;98215.09;2078128;28;20310;-74
2021/12/09 00:54:46;;;;;;;54.75;35.00;;;;;;;-3.60;100.00;98215.09;2078117;28;20226;-73
2021/12/09 00:55:48;;;;;;;57.45;35.58;;;;;;;-3.64;100.00;98221.00;2078393;28;20277;-74
2021/12/09 00:56:49;;;;;;;53.10;33.95;;;;;;;-3.72;100.00;98219.50;2078245;28;20239;-74
2021/12/09 00:57:51;;;;;;;51.03;34.50;;;;;;;-3.76;100.00;98213.94;2078076;28;20222;-74
2021/12/09 00:58:55;;;;;;;53.58;35.50;;;;;;;-3.72;100.00;98222.13;2077535;28;20558;-76
2021/12/09 00:59:58;;;;;;;53.83;35.58;;;;;;;-3.65;100.00;98224.59;2078079;28;20227;-74
2021/12/09 01:01:00;;;;;;;51.60;34.28;;;;;;;-3.66;100.00;98217.78;2069332;28;20685;-74
2021/12/09 01:02:04;;;;;;;53.90;34.92;;;;;;;-3.64;100.00;98208.75;2069873;28;20307;-74
2021/12/09 01:03:07;;;;;;;55.22;35.30;;;;;;;-3.70;100.00;98220.88;2078352;28;20239;-74
2021/12/09 01:04:08;;;;;;;54.38;35.50;;;;;;;-3.68;100.00;98210.22;2077605;28;20218;-74
2021/12/09 01:05:10;;;;;;;50.40;34.63;;;;;;;-3.71;100.00;98208.06;2069855;28;20698;-74
2021/12/09 01:06:12;;;;;;;52.92;35.38;;;;;;;-3.77;100.00;98201.13;2078147;28;20227;-74
2021/12/09 01:07:14;;;;;;;51.28;33.55;;;;;;;-3.73;100.00;98199.69;2077953;28;20223;-73
2021/12/09 01:08:18;;;;;;;50.25;33.97;;;;;;;-3.78;100.00;98191.72;2069763;28;20704;-73
2021/12/09 01:09:20;;;;;;;54.65;34.47;;;;;;;-3.76;100.00;98197.50;2078207;28;20246;-73
2021/12/09 01:10:22;;;;;;;52.63;33.55;;;;;;;-3.73;100.00;98204.91;2078198;28;20312;-74
2021/12/09 01:11:23;;;;;;;47.85;33.03;;;;;;;-3.71;100.00;98197.63;2077711;28;20311;-74
2021/12/09 01:12:25;;;;;;;50.73;33.90;;;;;;;-3.75;100.00;98202.50;2078772;28;20234;-74
2021/12/09 01:13:26;;;;;;;52.35;33.40;;;;;;;-3.81;100.00;98197.41;2078031;28;20223;-73
2021/12/09 01:14:28;;;;;;;54.63;34.90;;;;;;;-3.83;100.00;98195.00;2069901;28;20309;-74
2021/12/09 01:15:30;;;;;;;51.80;33.40;;;;;;;-3.83;100.00;98194.19;2070024;28;20278;-74
2021/12/09 01:16:34;;;;;;;52.97;34.08;;;;;;;-3.71;100.00;98187.22;2078185;28;20306;-73
2021/12/09 01:17:35;;;;;;;54.65;35.25;;;;;;;-3.53;100.00;98181.09;2078122;28;20227;-73
2021/12/09 01:18:37;;;;;;;50.13;35.97;;;;;;;-3.59;100.00;98177.56;2078192;28;20715;-74
2021/12/09 01:19:39;;;;;;;51.13;34.13;;;;;;;-3.56;100.00;98179.75;2078433;28;20277;-74
2021/12/09 01:20:41;;;;;;;51.35;36.40;;;;;;;-3.61;100.00;98177.00;2078678;28;20714;-74
2021/12/09 01:21:43;;;;;;;55.00;36.15;;;;;;;-3.74;100.00;98167.59;2078713;28;20285;-74
2021/12/09 01:22:52;;;;;;;51.30;34.70;;;;;;;-3.75;100.00;98170.41;2078005;28;20705;-73
2021/12/09 01:23:54;;;;;;;55.28;35.10;;;;;;;-3.80;100.00;98178.13;2070455;28;20307;-74
2021/12/09 01:24:56;;;;;;;50.45;34.58;;;;;;;-3.86;100.00;98173.81;2069988;28;20319;-73
2021/12/09 01:26:01;;;;;;;53.53;36.00;;;;;;;-3.87;100.00;98178.25;2069921;28;20237;-74
2021/12/09 01:27:03;;;;;;;54.70;34.45;;;;;;;-3.86;100.00;98179.03;2077998;28;20230;-74
2021/12/09 01:28:08;;;;;;;52.25;35.17;;;;;;;-3.84;100.00;98177.00;2077971;28;20247;-74
2021/12/09 01:29:16;;;;;;;53.30;35.20;;;;;;;-3.78;100.00;98174.28;2069829;28;20223;-74
2021/12/09 01:30:19;;;;;;;57.20;37.95;;;;;;;-3.75;100.00;98178.25;2070483;28;20265;-74
2021/12/09 01:31:24;;;;;;;57.88;36.38;;;;;;;-3.62;100.00;98174.63;2078060;28;20229;-74
2021/12/09 01:32:29;;;;;;;52.35;35.00;;;;;;;-3.69;100.00;98177.34;2077667;28;20227;-74
2021/12/09 01:33:32;;;;;;;60.17;37.50;;;;;;;-3.74;100.00;98178.00;2078129;28;20281;-74
2021/12/09 01:34:33;;;;;;;51.22;34.83;;;;;;;-3.73;100.00;98177.03;2077925;28;20239;-73
2021/12/09 01:35:35;;;;;;;54.53;36.38;;;;;;;-3.78;100.00;98171.69;2070083;28;20228;-73
2021/12/09 01:36:38;;;;;;;54.10;35.08;;;;;;;-3.66;100.00;98163.84;2077871;28;20228;-74
2021/12/09 01:37:40;;;;;;;54.28;36.50;;;;;;;-3.74;100.00;98166.78;2077775;28;20318;-73
2021/12/09 01:38:41;;;;;;;51.22;34.92;;;;;;;-3.78;100.00;98160.47;2078018;28;20314;-74
2021/12/09 01:39:44;;;;;;;56.67;35.33;;;;;;;-3.86;100.00;98156.38;2078008;28;20235;-74
2021/12/09 01:40:45;;;;;;;56.38;35.22;;;;;;;-3.89;100.00;98154.22;2069889;28;20701;-73
2021/12/09 01:41:47;;;;;;;57.67;35.53;;;;;;;-3.84;100.00;98156.94;2069820;28;20646;-73
2021/12/09 01:42:51;;;;;;;59.60;36.08;;;;;;;-3.88;100.00;98149.81;2069889;28;20299;-74
2021/12/09 01:43:54;;;;;;;53.17;35.83;;;;;;;-3.91;100.00;98160.66;2069885;28;20224;-74
2021/12/09 01:44:55;;;;;;;56.30;36.42;;;;;;;-3.83;100.00;98153.31;2070161;28;20743;-74
2021/12/09 01:46:05;;;;;;;58.10;38.00;;;;;;;-3.86;100.00;98151.16;2069878;28;20579;-74
2021/12/09 01:47:06;;;;;;;54.47;35.75;;;;;;;-3.90;100.00;98155.25;2071010;28;20223;-74
2021/12/09 01:48:08;;;;;;;54.80;37.53;;;;;;;-3.90;100.00;98159.66;2077628;28;20275;-74
2021/12/09 01:49:09;;;;;;;54.67;37.45;;;;;;;-3.82;100.00;98162.72;2078738;28;20223;-74
2021/12/09 01:50:13;;;;;;;58.37;35.87;;;;;;;-3.74;100.00;98162.38;2077867;28;20231;-74
2021/12/09 01:51:15;;;;;;;53.25;36.15;;;;;;;-3.79;100.00;98164.88;2077740;28;20255;-74
2021/12/09 01:52:17;;;;;;;57.60;36.55;;;;;;;-3.81;100.00;98171.34;2078070;28;20219;-73
2021/12/09 01:53:18;;;;;;;55.38;37.63;;;;;;;-3.79;100.00;98169.31;2078048;28;20223;-73
2021/12/09 01:54:23;;;;;;;55.37;36.80;;;;;;;-3.68;100.00;98171.13;2077975;28;20223;-74
2021/12/09 01:55:26;;;;;;;55.85;35.72;;;;;;;-3.67;100.00;98177.91;2070934;28;20677;-74
2021/12/09 01:56:29;;;;;;;56.60;36.00;;;;;;;-3.68;100.00;98165.91;2069895;28;20227;-73
2021/12/09 01:57:31;;;;;;;55.78;37.33;;;;;;;-3.73;100.00;98165.81;2070528;28;20228;-74
2021/12/09 01:58:33;;;;;;;55.30;35.85;;;;;;;-3.81;100.00;98155.72;2069201;28;20220;-74
2021/12/09 01:59:34;;;;;;;57.75;37.25;;;;;;;-3.87;100.00;98167.03;2061786;28;20237;-73
2021/12/09 02:00:38;;;;;;;63.23;37.17;;;;;;;-3.91;100.00;98164.09;2069724;28;20232;-74
2021/12/09 02:01:40;;;;;;;60.47;37.17;;;;;;;-3.90;100.00;98168.28;2075685;28;20357;-74
2021/12/09 02:02:43;;;;;;;58.38;36.78;;;;;;;-3.90;100.00;98175.28;2077847;28;20306;-74
2021/12/09 02:03:47;;;;;;;59.87;35.67;;;;;;;-3.92;100.00;98170.28;2069709;28;20228;-74
2021/12/09 02:04:48;;;;;;;57.35;36.72;;;;;;;-3.89;100.00;98180.28;2070094;28;20220;-72
2021/12/09 02:05:51;;;;;;;58.78;36.85;;;;;;;-3.90;100.00;98172.69;2066229;28;20246;-75
2021/12/09 02:06:53;;;;;;;59.92;37.25;;;;;;;-3.94;100.00;98167.13;2061729;28;20294;-74
2021/12/09 02:07:54;;;;;;;59.83;36.60;;;;;;;-3.86;100.00;98163.41;2067663;28;20224;-74
2021/12/09 02:08:56;;;;;;;56.42;37.17;;;;;;;-3.86;100.00;98155.56;2069715;28;20259;-74
2021/12/09 02:09:57;;;;;;;57.70;36.40;;;;;;;-3.80;100.00;98158.09;2077954;28;20733;-74
2021/12/09 02:11:02;;;;;;;55.37;36.27;;;;;;;-3.71;100.00;98164.56;2078802;28;20633;-75
2021/12/09 02:12:04;;;;;;;52.95;35.95;;;;;;;-3.45;100.00;98165.13;2078581;28;20233;-74
2021/12/09 02:13:07;;;;;;;59.65;36.63;;;;;;;-3.60;100.00;98162.97;2080029;28;20723;-74
2021/12/09 02:14:08;;;;;;;56.05;36.47;;;;;;;-3.67;100.00;98161.47;2078932;28;20227;-74
2021/12/09 02:15:10;;;;;;;56.60;36.15;;;;;;;-3.78;100.00;98161.25;2071187;28;20230;-74
2021/12/09 02:16:13;;;;;;;53.75;35.70;;;;;;;-3.81;100.00;98161.72;2079404;28;20605;-74
2021/12/09 02:17:16;;;;;;;52.75;34.47;;;;;;;-3.86;100.00;98161.59;2080146;28;20227;-74
2021/12/09 02:18:19;;;;;;;54.00;35.45;;;;;;;-3.88;100.00;98162.84;2079106;28;20677;-74
2021/12/09 02:19:21;;;;;;;52.38;34.53;;;;;;;-3.79;100.00;98158.88;2079360;28;20219;-74
2021/12/09 02:20:26;;;;;;;58.42;35.72;;;;;;;-3.80;100.00;98157.28;2072631;28;20311;-75
2021/12/09 02:21:30;;;;;;;55.17;35.65;;;;;;;-3.84;100.00;98161.34;2063509;28;20239;-74
2021/12/09 02:22:31;;;;;;;52.03;34.47;;;;;;;-3.82;100.00;98170.56;2071361;28;20220;-75
2021/12/09 02:23:33;;;;;;;52.53;34.72;;;;;;;-3.89;100.00;98159.44;2071139;28;20599;-74
2021/12/09 02:24:37;;;;;;;54.00;35.53;;;;;;;-3.86;100.00;98164.19;2071241;28;20240;-74
2021/12/09 02:25:44;;;;;;;52.88;34.90;;;;;;;-3.82;100.00;98156.69;2077224;28;20233;-75
2021/12/09 02:26:50;;;;;;;54.92;34.78;;;;;;;-3.84;100.00;98158.75;2071738;28;20667;-75
2021/12/09 02:27:50;;;;;;;50.47;34.53;;;;;;;-3.84;100.00;98156.94;2079405;28;20227;-74
2021/12/09 02:28:54;;;;;;;52.30;34.10;;;;;;;-3.78;100.00;98156.03;2079235;28;20294;-74
2021/12/09 02:29:55;;;;;;;55.80;34.42;;;;;;;-3.80;100.00;98159.91;2070908;28;20224;-74
2021/12/09 02:30:57;;;;;;;55.30;35.20;;;;;;;-3.81;100.00;98153.09;2079305;28;20277;-74
2021/12/09 02:32:01;;;;;;;54.25;35.20;;;;;;;-3.76;100.00;98154.00;2079391;28;20682;-74
2021/12/09 02:33:02;;;;;;;56.92;35.85;;;;;;;-3.73;100.00;98158.78;2079422;28;20223;-74
2021/12/09 02:34:05;;;;;;;54.33;35.95;;;;;;;-3.80;100.00;98150.28;2079194;28;20223;-74
2021/12/09 02:35:06;;;;;;;54.47;36.00;;;;;;;-3.86;100.00;98151.16;2071128;28;20303;-74
2021/12/09 02:36:10;;;;;;;54.85;36.13;;;;;;;-3.80;100.00;98146.88;2070841;28;20266;-74
2021/12/09 02:37:13;;;;;;;56.25;35.63;;;;;;;-3.80;100.00;98150.28;2078997;28;20681;-74
2021/12/09 02:38:15;;;;;;;52.15;35.25;;;;;;;-3.82;100.00;98143.66;2079875;28;20306;-73
2021/12/09 02:39:18;;;;;;;52.90;36.08;;;;;;;-3.85;100.00;98141.53;2078092;28;20302;-75
2021/12/09 02:40:21;;;;;;;56.25;36.58;;;;;;;-3.85;100.00;98144.94;2079180;28;20247;-74
2021/12/09 02:41:23;;;;;;;55.33;36.60;;;;;;;-3.87;100.00;98133.94;2078588;28;20223;-76
2021/12/09 02:42:26;;;;;;;53.97;34.58;;;;;;;-3.85;100.00;98138.94;2071137;28;20251;-74
2021/12/09 02:43:28;;;;;;;54.83;35.47;;;;;;;-3.80;100.00;98144.25;2071153;28;22520;-74
2021/12/09 02:44:30;;;;;;;56.45;36.10;;;;;;;-3.80;100.00;98150.28;2079366;28;20636;-74
2021/12/09 02:45:33;;;;;;;56.53;36.55;;;;;;;-3.82;100.00;98147.09;2079309;28;20227;-75
2021/12/09 02:46:38;;;;;;;54.10;35.22;;;;;;;-3.73;100.00;98148.34;2079870;28;20243;-75
2021/12/09 02:47:39;;;;;;;56.22;36.40;;;;;;;-3.77;100.00;98147.19;2078626;28;20273;-72
2021/12/09 02:48:41;;;;;;;52.60;35.40;;;;;;;-3.80;100.00;98139.84;2079149;28;20237;-72
2021/12/09 02:49:43;;;;;;;57.38;36.80;;;;;;;-3.79;100.00;98143.25;2079131;28;20420;-73
2021/12/09 02:50:44;;;;;;;54.67;36.22;;;;;;;-3.81;100.00;98142.69;2079046;28;20257;-74
2021/12/09 02:51:49;;;;;;;55.87;36.90;;;;;;;-3.81;100.00;98137.47;2078951;28;20215;-73
2021/12/09 02:52:52;;;;;;;57.30;35.92;;;;;;;-3.79;100.00;98138.81;2071183;28;20408;-73
2021/12/09 02:53:54;;;;;;;56.20;36.60;;;;;;;-3.80;100.00;98149.47;2072483;28;20231;-73
2021/12/09 02:54:57;;;;;;;52.88;36.05;;;;;;;-3.77;100.00;98149.00;2070888;28;20605;-73
2021/12/09 02:55:59;;;;;;;55.40;36.05;;;;;;;-3.78;100.00;98150.03;2070990;28;20220;-73
2021/12/09 02:57:04;;;;;;;53.28;36.60;;;;;;;-3.75;100.00;98154.78;2070373;28;20335;-73
2021/12/09 02:58:06;;;;;;;53.63;36.00;;;;;;;-3.76;100.00;98151.38;2070880;28;20216;-73
2021/12/09 02:59:09;;;;;;;51.13;36.80;;;;;;;-3.70;100.00;98155.72;2071528;28;20224;-74
2021/12/09 03:00:12;;;;;;;53.17;36.60;;;;;;;-3.59;100.00;98155.94;2077734;28;20230;-74
2021/12/09 03:01:19;;;;;;;55.55;37.85;;;;;;;-3.58;100.00;98157.50;2079184;28;20232;-73
2021/12/09 03:02:21;;;;;;;51.45;35.03;;;;;;;-3.57;100.00;98157.28;2071691;28;20228;-73
2021/12/09 03:03:22;;;;;;;52.80;35.83;;;;;;;-3.53;100.00;98157.63;2070395;28;20313;-73
2021/12/09 03:04:26;;;;;;;51.60;34.50;;;;;;;-3.48;100.00;98158.53;2070754;28;20220;-73
2021/12/09 03:05:27;;;;;;;50.40;34.55;;;;;;;-3.54;100.00;98164.66;2071074;28;20228;-73
2021/12/09 03:06:34;;;;;;;48.05;34.75;;;;;;;-3.56;100.00;98164.09;2079060;28;20308;-73
2021/12/09 03:07:41;;;;;;;55.53;35.13;;;;;;;-3.59;100.00;98166.34;2079031;28;20674;-73
2021/12/09 03:08:43;;;;;;;50.97;35.75;;;;;;;-3.60;100.00;98162.97;2078771;28;20231;-73
2021/12/09 03:09:51;;;;;;;53.88;35.28;;;;;;;-3.60;100.00;98172.59;2069744;28;20240;-73
2021/12/09 03:10:51;;;;;;;50.33;34.08;;;;;;;-3.61;100.00;98178.84;2071764;28;20247;-73
2021/12/09 03:11:55;;;;;;;53.23;36.37;;;;;;;-3.59;100.00;98179.38;2070403;28;20220;-74
2021/12/09 03:13:05;;;;;;;55.13;35.88;;;;;;;-3.57;100.00;98178.13;2071051;28;20234;-73
2021/12/09 03:14:07;;;;;;;54.75;36.47;;;;;;;-3.58;100.00;98171.34;2079095;28;20302;-73
2021/12/09 03:15:11;;;;;;;52.28;35.60;;;;;;;-3.61;100.00;98171.81;2078542;28;20231;-74
2021/12/09 03:16:12;;;;;;;52.92;34.80;;;;;;;-3.62;100.00;98178.03;2078968;28;20241;-73
2021/12/09 03:17:14;;;;;;;50.88;34.70;;;;;;;-3.64;100.00;98177.47;2078904;28;20806;-74
2021/12/09 03:18:15;;;;;;;51.30;36.38;;;;;;;-3.68;100.00;98175.53;2070874;28;20227;-73
2021/12/09 03:19:16;;;;;;;52.60;35.77;;;;;;;-3.71;100.00;98171.56;2070650;28;20244;-74
2021/12/09 03:20:19;;;;;;;52.67;35.88;;;;;;;-3.74;100.00;98164.97;2079095;28;20760;-73
2021/12/09 03:21:25;;;;;;;53.85;34.83;;;;;;;-3.66;100.00;98163.84;2078794;28;20261;-73
2021/12/09 03:22:26;;;;;;;54.53;34.85;;;;;;;-3.64;100.00;98172.25;2078615;28;20258;-73
2021/12/09 03:23:30;;;;;;;51.33;34.75;;;;;;;-3.74;100.00;98167.59;2079654;28;20613;-73
2021/12/09 03:24:31;;;;;;;50.78;34.00;;;;;;;-3.78;100.00;98161.25;2078370;28;20600;-73
2021/12/09 03:25:33;;;;;;;52.10;34.20;;;;;;;-3.77;100.00;98167.25;2070630;28;20303;-73
2021/12/09 03:26:36;;;;;;;51.55;34.90;;;;;;;-3.65;100.00;98167.25;2070740;28;20232;-73
2021/12/09 03:27:39;;;;;;;54.70;36.28;;;;;;;-3.56;100.00;98158.91;2070631;28;20236;-74
2021/12/09 03:28:41;;;;;;;50.00;34.42;;;;;;;-3.64;100.00;98159.22;2071170;28;20251;-72
2021/12/09 03:29:43;;;;;;;57.08;35.28;;;;;;;-3.67;100.00;98149.25;2078863;28;20314;-72
2021/12/09 03:30:45;;;;;;;51.15;34.22;;;;;;;-3.75;100.00;98152.97;2078781;28;20253;-73
2021/12/09 03:31:48;;;;;;;52.92;34.80;;;;;;;-3.78;100.00;98150.81;2070745;28;20220;-73
2021/12/09 03:32:50;;;;;;;54.67;35.60;;;;;;;-3.78;100.00;98150.81;2078895;28;20558;-73
2021/12/09 03:33:52;;;;;;;53.50;36.55;;;;;;;-3.76;100.00;98148.00;2079019;28;20273;-73
2021/12/09 03:34:57;;;;;;;56.25;36.92;;;;;;;-3.74;100.00;98151.16;2078300;28;20227;-74
2021/12/09 03:35:58;;;;;;;53.90;35.25;;;;;;;-3.76;100.00;98153.19;2070884;28;20275;-73
2021/12/09 03:37:02;;;;;;;54.08;36.90;;;;;;;-3.80;100.00;98146.88;2078924;28;20227;-73
2021/12/09 03:38:05;;;;;;;58.90;36.35;;;;;;;-3.80;100.00;98154.69;2078951;28;20219;-73
2021/12/09 03:39:09;;;;;;;53.25;35.80;;;;;;;-3.68;100.00;98150.25;2078875;28;20220;-72
2021/12/09 03:40:12;;;;;;;56.75;36.60;;;;;;;-3.68;100.00;98152.88;2078995;28;20597;-73
2021/12/09 03:41:15;;;;;;;52.85;36.00;;;;;;;-3.64;100.00;98151.41;2079477;28;20259;-73
2021/12/09 03:42:21;;;;;;;51.90;35.28;;;;;;;-3.56;100.00;98153.69;2079528;28;20227;-73
2021/12/09 03:43:24;;;;;;;51.65;35.58;;;;;;;-3.61;100.00;98156.16;2072124;28;20230;-73
2021/12/09 03:44:26;;;;;;;57.17;36.53;;;;;;;-3.66;100.00;98150.81;2062574;28;20287;-72
2021/12/09 03:45:28;;;;;;;52.47;36.35;;;;;;;-3.68;100.00;98154.69;2062814;28;20706;-73
2021/12/09 03:46:29;;;;;;;51.47;35.92;;;;;;;-3.65;100.00;98159.44;2062794;28;20687;-73
2021/12/09 03:47:32;;;;;;;57.37;37.27;;;;;;;-3.71;100.00;98155.94;2070635;28;20615;-73
2021/12/09 03:48:33;;;;;;;56.95;37.67;;;;;;;-3.71;100.00;98155.94;2070653;28;20216;-73
2021/12/09 03:49:37;;;;;;;59.88;37.03;;;;;;;-3.66;100.00;98153.44;2062574;28;20255;-73
2021/12/09 03:50:39;;;;;;;58.60;38.05;;;;;;;-3.70;100.00;98153.09;2076484;28;20251;-74
2021/12/09 03:51:41;;;;;;;59.67;38.33;;;;;;;-3.71;100.00;98151.53;2078688;28;20224;-73
2021/12/09 03:52:42;;;;;;;56.60;36.83;;;;;;;-3.62;100.00;98151.97;2078635;28;20795;-73
2021/12/09 03:53:43;;;;;;;55.50;37.27;;;;;;;-3.60;100.00;98151.75;2078600;28;20648;-73
2021/12/09 03:54:46;;;;;;;58.55;37.42;;;;;;;-3.62;100.00;98154.56;2078709;28;20224;-73
2021/12/09 03:55:48;;;;;;;59.05;37.10;;;;;;;-3.62;100.00;98151.97;2078294;28;20725;-73
2021/12/09 03:56:49;;;;;;;58.40;38.63;;;;;;;-3.61;100.00;98147.56;2078764;28;20235;-74
2021/12/09 03:57:51;;;;;;;59.93;38.07;;;;;;;-3.59;100.00;98153.31;2078555;28;20228;-72
2021/12/09 03:58:52;;;;;;;56.63;38.13;;;;;;;-3.56;100.00;98158.91;2078251;28;20234;-74
2021/12/09 03:59:54;;;;;;;62.43;37.67;;;;;;;-3.55;100.00;98162.28;2078618;28;20678;-74
2021/12/09 04:00:56;;;;;;;56.22;36.35;;;;;;;-3.54;100.00;98162.06;2078604;28;20689;-73
2021/12/09 04:02:01;;;;;;;58.53;37.75;;;;;;;-3.55;100.00;98163.09;2078574;28;21829;-72
2021/12/09 04:03:04;;;;;;;54.33;36.55;;;;;;;-3.59;100.00;98156.72;2079207;28;20725;-72
2021/12/09 04:04:06;;;;;;;54.45;38.17;;;;;;;-3.62;100.00;98165.00;2078581;28;20224;-73
2021/12/09 04:05:09;;;;;;;56.55;37.08;;;;;;;-3.58;100.00;98176.56;2078172;28;20616;-73
2021/12/09 04:06:10;;;;;;;58.00;37.47;;;;;;;-3.61;100.00;98181.44;2079325;28;20288;-72
2021/12/09 04:07:12;;;;;;;58.03;37.20;;;;;;;-3.55;100.00;98176.13;2079291;28;20238;-73
2021/12/09 04:08:13;;;;;;;58.95;38.40;;;;;;;-3.54;100.00;98175.09;2078741;28;20689;-73
2021/12/09 04:09:22;;;;;;;56.67;37.80;;;;;;;-3.47;100.00;98161.97;2070277;28;20247;-73
2021/12/09 04:10:26;;;;;;;54.70;37.05;;;;;;;-3.42;100.00;98162.06;2078333;28;20238;-75
2021/12/09 04:11:29;;;;;;;58.10;36.13;;;;;;;-3.44;100.00;98162.28;2078747;28;20223;-72
2021/12/09 04:12:30;;;;;;;57.42;36.28;;;;;;;-3.47;100.00;98161.97;2070723;28;20224;-74
2021/12/09 04:13:33;;;;;;;56.33;36.43;;;;;;;-3.52;100.00;98162.63;2078560;28;20224;-74
2021/12/09 04:14:35;;;;;;;53.47;36.80;;;;;;;-3.46;100.00;98166.16;2078507;28;20231;-73
2021/12/09 04:15:37;;;;;;;56.45;36.42;;;;;;;-3.47;100.00;98165.34;2070573;28;20260;-73
2021/12/09 04:16:40;;;;;;;55.92;36.95;;;;;;;-3.44;100.00;98172.72;2078070;28;20247;-73
2021/12/09 04:17:42;;;;;;;55.75;35.75;;;;;;;-3.37;100.00;98170.00;2078700;28;20269;-74
2021/12/09 04:18:44;;;;;;;57.80;35.78;;;;;;;-3.33;100.00;98165.91;2070378;28;20223;-73
2021/12/09 04:19:47;;;;;;;51.72;37.47;;;;;;;-3.32;100.00;98170.09;2078438;28;20585;-73
2021/12/09 04:20:49;;;;;;;55.10;36.00;;;;;;;-3.37;100.00;98166.59;2070539;28;20223;-73
2021/12/09 04:21:50;;;;;;;59.28;38.00;;;;;;;-3.41;100.00;98169.63;2070381;28;20232;-73
2021/12/09 04:22:55;;;;;;;53.67;36.83;;;;;;;-3.43;100.00;98168.28;2078455;28;20312;-74
2021/12/09 04:23:58;;;;;;;54.33;37.53;;;;;;;-3.43;100.00;98176.91;2078131;28;20701;-74
2021/12/09 04:25:00;;;;;;;53.33;35.38;;;;;;;-3.45;100.00;98171.13;2078578;28;20246;-73
2021/12/09 04:26:03;;;;;;;56.85;37.80;;;;;;;-3.48;100.00;98168.97;2070362;28;20244;-74
2021/12/09 04:27:05;;;;;;;60.95;37.17;;;;;;;-3.50;100.00;98171.00;2070289;28;20224;-73
2021/12/09 04:28:06;;;;;;;57.47;36.75;;;;;;;-3.50;100.00;98157.19;2070367;28;20224;-74
2021/12/09 04:29:09;;;;;;;57.83;37.80;;;;;;;-3.41;100.00;98163.63;2078089;28;20281;-76
2021/12/09 04:30:12;;;;;;;61.03;38.22;;;;;;;-3.42;100.00;98167.25;2078478;28;20223;-74
2021/12/09 04:31:15;;;;;;;56.22;36.33;;;;;;;-3.47;100.00;98160.13;2070484;28;20235;-74
2021/12/09 04:32:16;;;;;;;57.42;37.10;;;;;;;-3.45;100.00;98163.31;2078398;28;20621;-74
2021/12/09 04:33:18;;;;;;;59.50;39.00;;;;;;;-3.45;100.00;98150.28;2070395;28;20275;-74
2021/12/09 04:34:21;;;;;;;60.55;37.10;;;;;;;-3.32;100.00;98161.47;2078393;28;20257;-74
2021/12/09 04:35:22;;;;;;;62.10;38.97;;;;;;;-3.22;100.00;98164.28;2078561;28;20223;-76
2021/12/09 04:36:25;;;;;;;68.15;38.85;;;;;;;-3.05;100.00;98159.16;2078358;28;20804;-74
2021/12/09 04:37:27;;;;;;;59.25;38.45;;;;;;;-3.13;100.00;98157.69;2070511;28;20227;-74
2021/12/09 04:38:32;;;;;;;66.72;40.38;;;;;;;-3.22;100.00;98151.25;2070124;28;20725;-73
2021/12/09 04:39:33;;;;;;;62.20;40.17;;;;;;;-3.29;100.00;98158.44;2078557;28;20242;-73
2021/12/09 04:40:35;;;;;;;66.57;38.63;;;;;;;-3.38;100.00;98155.38;2078993;28;20308;-73
2021/12/09 04:41:39;;;;;;;63.83;38.35;;;;;;;-3.43;100.00;98156.03;2078884;28;20289;-73
2021/12/09 04:42:40;;;;;;;68.32;38.03;;;;;;;-3.41;100.00;98159.22;2077878;28;20227;-73
2021/12/09 04:43:42;;;;;;;65.82;39.33;;;;;;;-3.46;100.00;98150.50;2078333;28;20229;-73
2021/12/09 04:44:46;;;;;;;66.93;38.92;;;;;;;-3.48;100.00;98155.91;2077987;28;20230;-73
2021/12/09 04:45:48;;;;;;;70.53;40.00;;;;;;;-3.47;100.00;98154.94;2070549;28;20597;-74